sensor_id;sensor_type;location;lat;lon;timestamp;P1;durP1;ratioP1;P2;durP2;ratioP2
63653;SDS011;49809;47.418;19.080;2023-07-13T00:10:08;4.97;;;2.75;;
63653;SDS011;49809;47.418;19.080;2023-07-13T00:13:52;7.55;;;2.60;;
63653;SDS011;49809;47.418;19.080;2023-07-13T00:17:31;5.78;;;2.70;;
63653;SDS011;49809;47.418;19.080;2023-07-13T00:29:18;3.72;;;1.92;;
63653;SDS011;49809;47.418;19.080;2023-07-13T00:32:43;4.00;;;1.90;;
63653;SDS011;49809;47.418;19.080;2023-07-13T00:36:20;6.32;;;2.20;;
63653;SDS011;49809;47.418;19.080;2023-07-13T00:53:05;2.78;;;1.50;;
63653;SDS011;49809;47.418;19.080;2023-07-13T00:56:41;3.67;;;1.70;;
63653;SDS011;49809;47.418;19.080;2023-07-13T01:00:28;3.03;;;1.73;;
63653;SDS011;49809;47.418;19.080;2023-07-13T01:07:58;4.22;;;1.80;;
63653;SDS011;49809;47.418;19.080;2023-07-13T01:20:01;3.72;;;2.03;;
63653;SDS011;49809;47.418;19.080;2023-07-13T01:23:51;6.43;;;1.80;;
63653;SDS011;49809;47.418;19.080;2023-07-13T01:27:27;4.28;;;2.00;;
63653;SDS011;49809;47.418;19.080;2023-07-13T01:34:56;3.53;;;1.80;;
63653;SDS011;49809;47.418;19.080;2023-07-13T01:38:34;3.33;;;2.05;;
63653;SDS011;49809;47.418;19.080;2023-07-13T01:42:11;2.55;;;2.05;;
63653;SDS011;49809;47.418;19.080;2023-07-13T01:49:39;4.70;;;2.15;;
63653;SDS011;49809;47.418;19.080;2023-07-13T01:53:15;3.00;;;1.85;;
63653;SDS011;49809;47.418;19.080;2023-07-13T01:56:54;3.12;;;2.20;;
63653;SDS011;49809;47.418;19.080;2023-07-13T02:08:27;3.40;;;2.03;;
63653;SDS011;49809;47.418;19.080;2023-07-13T02:12:14;4.60;;;2.40;;
63653;SDS011;49809;47.418;19.080;2023-07-13T02:15:50;3.42;;;2.12;;
63653;SDS011;49809;47.418;19.080;2023-07-13T02:19:27;5.28;;;2.12;;
63653;SDS011;49809;47.418;19.080;2023-07-13T02:23:14;5.03;;;2.30;;
63653;SDS011;49809;47.418;19.080;2023-07-13T02:26:52;4.68;;;2.40;;
63653;SDS011;49809;47.418;19.080;2023-07-13T02:30:29;3.78;;;2.20;;
63653;SDS011;49809;47.418;19.080;2023-07-13T02:42:06;4.72;;;2.40;;
63653;SDS011;49809;47.418;19.080;2023-07-13T02:53:49;4.40;;;2.50;;
63653;SDS011;49809;47.418;19.080;2023-07-13T02:57:27;5.22;;;2.80;;
63653;SDS011;49809;47.418;19.080;2023-07-13T03:01:10;5.03;;;2.60;;
63653;SDS011;49809;47.418;19.080;2023-07-13T03:08:35;5.03;;;2.60;;
63653;SDS011;49809;47.418;19.080;2023-07-13T03:20:43;5.00;;;2.53;;
63653;SDS011;49809;47.418;19.080;2023-07-13T03:28:36;4.70;;;2.47;;
63653;SDS011;49809;47.418;19.080;2023-07-13T03:44:01;3.67;;;2.05;;
63653;SDS011;49809;47.418;19.080;2023-07-13T03:47:47;8.90;;;2.67;;
63653;SDS011;49809;47.418;19.080;2023-07-13T04:03:28;6.15;;;2.25;;
63653;SDS011;49809;47.418;19.080;2023-07-13T04:07:05;3.92;;;2.50;;
63653;SDS011;49809;47.418;19.080;2023-07-13T04:10:46;4.53;;;2.30;;
63653;SDS011;49809;47.418;19.080;2023-07-13T04:18:15;6.15;;;2.20;;
63653;SDS011;49809;47.418;19.080;2023-07-13T04:22:01;4.12;;;2.20;;
63653;SDS011;49809;47.418;19.080;2023-07-13T04:25:37;3.85;;;2.10;;
63653;SDS011;49809;47.418;19.080;2023-07-13T04:29:15;4.18;;;2.53;;
63653;SDS011;49809;47.418;19.080;2023-07-13T04:45:42;4.35;;;2.20;;
63653;SDS011;49809;47.418;19.080;2023-07-13T04:49:39;4.28;;;2.20;;
63653;SDS011;49809;47.418;19.080;2023-07-13T04:53:25;6.28;;;2.37;;
63653;SDS011;49809;47.418;19.080;2023-07-13T04:57:03;4.47;;;2.28;;
63653;SDS011;49809;47.418;19.080;2023-07-13T05:12:57;5.03;;;2.17;;
63653;SDS011;49809;47.418;19.080;2023-07-13T05:20:26;6.68;;;2.78;;
63653;SDS011;49809;47.418;19.080;2023-07-13T05:24:04;5.82;;;2.65;;
63653;SDS011;49809;47.418;19.080;2023-07-13T05:27:43;5.87;;;2.60;;
63653;SDS011;49809;47.418;19.080;2023-07-13T05:39:46;4.75;;;2.67;;
63653;SDS011;49809;47.418;19.080;2023-07-13T05:43:30;4.72;;;2.17;;
63653;SDS011;49809;47.418;19.080;2023-07-13T05:55:22;6.30;;;2.75;;
63653;SDS011;49809;47.418;19.080;2023-07-13T05:58:58;3.00;;;2.05;;
63653;SDS011;49809;47.418;19.080;2023-07-13T06:02:33;5.05;;;2.17;;
63653;SDS011;49809;47.418;19.080;2023-07-13T06:06:17;3.87;;;1.70;;
63653;SDS011;49809;47.418;19.080;2023-07-13T06:09:43;2.97;;;1.67;;
63653;SDS011;49809;47.418;19.080;2023-07-13T06:13:25;5.15;;;1.40;;
63653;SDS011;49809;47.418;19.080;2023-07-13T06:17:07;2.45;;;1.17;;
63653;SDS011;49809;47.418;19.080;2023-07-13T06:20:39;4.05;;;1.35;;
63653;SDS011;49809;47.418;19.080;2023-07-13T06:24:12;1.95;;;1.40;;
63653;SDS011;49809;47.418;19.080;2023-07-13T06:27:49;2.55;;;1.40;;
63653;SDS011;49809;47.418;19.080;2023-07-13T06:31:21;4.25;;;1.80;;
63653;SDS011;49809;47.418;19.080;2023-07-13T06:34:58;2.78;;;1.62;;
63653;SDS011;49809;47.418;19.080;2023-07-13T06:38:46;2.58;;;1.62;;
63653;SDS011;49809;47.418;19.080;2023-07-13T06:42:15;2.95;;;1.75;;
63653;SDS011;49809;47.418;19.080;2023-07-13T06:45:54;1.80;;;1.30;;
63653;SDS011;49809;47.418;19.080;2023-07-13T06:49:42;2.12;;;1.10;;
63653;SDS011;49809;47.418;19.080;2023-07-13T06:53:24;2.37;;;1.20;;
63653;SDS011;49809;47.418;19.080;2023-07-13T07:00:37;1.65;;;1.20;;
63653;SDS011;49809;47.418;19.080;2023-07-13T07:04:28;1.37;;;0.95;;
63653;SDS011;49809;47.418;19.080;2023-07-13T07:08:04;1.92;;;1.33;;
63653;SDS011;49809;47.418;19.080;2023-07-13T07:11:51;5.75;;;1.42;;
63653;SDS011;49809;47.418;19.080;2023-07-13T07:15:42;3.53;;;1.15;;
63653;SDS011;49809;47.418;19.080;2023-07-13T07:19:20;1.87;;;1.37;;
63653;SDS011;49809;47.418;19.080;2023-07-13T07:22:46;2.92;;;1.73;;
63653;SDS011;49809;47.418;19.080;2023-07-13T07:26:20;2.28;;;1.33;;
63653;SDS011;49809;47.418;19.080;2023-07-13T07:30:12;2.72;;;1.40;;
63653;SDS011;49809;47.418;19.080;2023-07-13T07:33:39;3.60;;;1.50;;
63653;SDS011;49809;47.418;19.080;2023-07-13T07:41:17;2.97;;;1.52;;
63653;SDS011;49809;47.418;19.080;2023-07-13T07:44:40;2.75;;;1.50;;
63653;SDS011;49809;47.418;19.080;2023-07-13T07:48:17;2.97;;;1.20;;
63653;SDS011;49809;47.418;19.080;2023-07-13T07:51:57;1.77;;;1.37;;
63653;SDS011;49809;47.418;19.080;2023-07-13T07:55:59;2.87;;;1.50;;
63653;SDS011;49809;47.418;19.080;2023-07-13T08:07:14;2.58;;;1.48;;
63653;SDS011;49809;47.418;19.080;2023-07-13T08:11:09;2.78;;;1.40;;
63653;SDS011;49809;47.418;19.080;2023-07-13T08:15:01;1.95;;;1.10;;
63653;SDS011;49809;47.418;19.080;2023-07-13T08:18:53;1.55;;;1.20;;
63653;SDS011;49809;47.418;19.080;2023-07-13T08:22:42;2.03;;;1.45;;
63653;SDS011;49809;47.418;19.080;2023-07-13T08:30:28;4.45;;;1.45;;
63653;SDS011;49809;47.418;19.080;2023-07-13T08:33:58;2.80;;;1.30;;
63653;SDS011;49809;47.418;19.080;2023-07-13T08:37:38;4.03;;;1.30;;
63653;SDS011;49809;47.418;19.080;2023-07-13T08:52:37;2.17;;;1.30;;
63653;SDS011;49809;47.418;19.080;2023-07-13T09:08:57;2.10;;;1.40;;
63653;SDS011;49809;47.418;19.080;2023-07-13T09:16:12;2.50;;;1.73;;
63653;SDS011;49809;47.418;19.080;2023-07-13T09:23:41;2.08;;;1.55;;
63653;SDS011;49809;47.418;19.080;2023-07-13T09:27:39;2.30;;;1.80;;
63653;SDS011;49809;47.418;19.080;2023-07-13T09:35:26;3.28;;;1.90;;
63653;SDS011;49809;47.418;19.080;2023-07-13T09:38:56;2.45;;;1.77;;
63653;SDS011;49809;47.418;19.080;2023-07-13T09:56:24;2.70;;;1.70;;
63653;SDS011;49809;47.418;19.080;2023-07-13T10:03:39;3.03;;;1.90;;
63653;SDS011;49809;47.418;19.080;2023-07-13T10:07:29;1.83;;;1.62;;
63653;SDS011;49809;47.418;19.080;2023-07-13T10:11:46;2.42;;;1.70;;
63653;SDS011;49809;47.418;19.080;2023-07-13T10:15:29;2.95;;;1.65;;
63653;SDS011;49809;47.418;19.080;2023-07-13T10:40:15;1.70;;;1.30;;
63653;SDS011;49809;47.418;19.080;2023-07-13T10:49:04;3.70;;;1.70;;
63653;SDS011;49809;47.418;19.080;2023-07-13T11:00:31;1.65;;;1.45;;
63653;SDS011;49809;47.418;19.080;2023-07-13T11:04:08;1.73;;;1.20;;
63653;SDS011;49809;47.418;19.080;2023-07-13T11:16:26;2.50;;;1.35;;
63653;SDS011;49809;47.418;19.080;2023-07-13T11:20:37;1.60;;;1.30;;
63653;SDS011;49809;47.418;19.080;2023-07-13T11:28:27;2.33;;;1.20;;
63653;SDS011;49809;47.418;19.080;2023-07-13T11:36:57;2.90;;;1.40;;
63653;SDS011;49809;47.418;19.080;2023-07-13T11:52:18;1.37;;;1.27;;
63653;SDS011;49809;47.418;19.080;2023-07-13T12:08:23;3.12;;;1.50;;
63653;SDS011;49809;47.418;19.080;2023-07-13T12:11:56;3.67;;;1.52;;
63653;SDS011;49809;47.418;19.080;2023-07-13T12:19:43;2.95;;;1.30;;
63653;SDS011;49809;47.418;19.080;2023-07-13T12:27:33;1.75;;;1.50;;
63653;SDS011;49809;47.418;19.080;2023-07-13T12:35:20;2.28;;;1.40;;
63653;SDS011;49809;47.418;19.080;2023-07-13T12:39:13;2.50;;;1.58;;
63653;SDS011;49809;47.418;19.080;2023-07-13T12:47:11;2.78;;;1.70;;
63653;SDS011;49809;47.418;19.080;2023-07-13T12:51:02;3.72;;;1.50;;
63653;SDS011;49809;47.418;19.080;2023-07-13T12:54:41;1.90;;;1.50;;
63653;SDS011;49809;47.418;19.080;2023-07-13T12:58:19;3.37;;;1.55;;
63653;SDS011;49809;47.418;19.080;2023-07-13T13:02:26;2.67;;;1.40;;
63653;SDS011;49809;47.418;19.080;2023-07-13T13:09:42;2.72;;;1.73;;
63653;SDS011;49809;47.418;19.080;2023-07-13T13:13:08;1.92;;;1.73;;
63653;SDS011;49809;47.418;19.080;2023-07-13T13:16:48;2.40;;;1.77;;
63653;SDS011;49809;47.418;19.080;2023-07-13T13:20:21;3.05;;;1.90;;
63653;SDS011;49809;47.418;19.080;2023-07-13T13:23:57;2.00;;;1.80;;
63653;SDS011;49809;47.418;19.080;2023-07-13T13:27:26;2.78;;;1.70;;
63653;SDS011;49809;47.418;19.080;2023-07-13T13:30:56;1.90;;;1.70;;
63653;SDS011;49809;47.418;19.080;2023-07-13T13:34:37;2.25;;;1.40;;
63653;SDS011;49809;47.418;19.080;2023-07-13T13:38:12;3.58;;;1.67;;
63653;SDS011;49809;47.418;19.080;2023-07-13T13:41:41;2.00;;;1.60;;
63653;SDS011;49809;47.418;19.080;2023-07-13T13:45:13;2.12;;;1.60;;
63653;SDS011;49809;47.418;19.080;2023-07-13T13:48:34;3.87;;;1.80;;
63653;SDS011;49809;47.418;19.080;2023-07-13T13:52:17;1.90;;;1.67;;
63653;SDS011;49809;47.418;19.080;2023-07-13T13:55:35;1.90;;;1.70;;
63653;SDS011;49809;47.418;19.080;2023-07-13T13:59:05;3.20;;;1.37;;
63653;SDS011;49809;47.418;19.080;2023-07-13T14:06:38;1.83;;;1.55;;
63653;SDS011;49809;47.418;19.080;2023-07-13T14:10:18;1.75;;;1.60;;
63653;SDS011;49809;47.418;19.080;2023-07-13T14:14:04;2.62;;;1.70;;
63653;SDS011;49809;47.418;19.080;2023-07-13T14:17:28;2.35;;;1.60;;
63653;SDS011;49809;47.418;19.080;2023-07-13T14:20:48;1.77;;;1.67;;
63653;SDS011;49809;47.418;19.080;2023-07-13T14:24:44;1.70;;;1.60;;
63653;SDS011;49809;47.418;19.080;2023-07-13T14:39:49;1.98;;;1.67;;
63653;SDS011;49809;47.418;19.080;2023-07-13T14:43:14;5.18;;;1.70;;
63653;SDS011;49809;47.418;19.080;2023-07-13T14:46:52;2.67;;;1.83;;
63653;SDS011;49809;47.418;19.080;2023-07-13T14:50:31;3.58;;;1.70;;
63653;SDS011;49809;47.418;19.080;2023-07-13T14:54:36;2.00;;;1.70;;
63653;SDS011;49809;47.418;19.080;2023-07-13T14:57:59;2.42;;;1.73;;
63653;SDS011;49809;47.418;19.080;2023-07-13T15:01:32;2.53;;;1.90;;
63653;SDS011;49809;47.418;19.080;2023-07-13T15:04:53;2.85;;;1.60;;
63653;SDS011;49809;47.418;19.080;2023-07-13T15:12:15;2.60;;;1.60;;
63653;SDS011;49809;47.418;19.080;2023-07-13T15:15:36;4.00;;;1.80;;
63653;SDS011;49809;47.418;19.080;2023-07-13T15:19:10;1.60;;;1.40;;
63653;SDS011;49809;47.418;19.080;2023-07-13T15:26:53;2.42;;;1.80;;
63653;SDS011;49809;47.418;19.080;2023-07-13T15:30:36;2.67;;;1.70;;
63653;SDS011;49809;47.418;19.080;2023-07-13T15:34:24;2.12;;;1.77;;
63653;SDS011;49809;47.418;19.080;2023-07-13T15:42:15;2.50;;;1.70;;
63653;SDS011;49809;47.418;19.080;2023-07-13T15:45:40;2.70;;;1.70;;
63653;SDS011;49809;47.418;19.080;2023-07-13T15:49:11;2.58;;;1.90;;
63653;SDS011;49809;47.418;19.080;2023-07-13T15:52:30;2.60;;;1.80;;
63653;SDS011;49809;47.418;19.080;2023-07-13T15:56:38;4.57;;;1.80;;
63653;SDS011;49809;47.418;19.080;2023-07-13T16:04:08;2.30;;;1.65;;
63653;SDS011;49809;47.418;19.080;2023-07-13T16:07:52;2.35;;;1.60;;
63653;SDS011;49809;47.418;19.080;2023-07-13T16:11:41;1.98;;;1.70;;
63653;SDS011;49809;47.418;19.080;2023-07-13T16:15:32;2.33;;;1.83;;
63653;SDS011;49809;47.418;19.080;2023-07-13T16:19:13;3.17;;;1.92;;
63653;SDS011;49809;47.418;19.080;2023-07-13T16:22:41;2.95;;;1.70;;
63653;SDS011;49809;47.418;19.080;2023-07-13T16:29:51;2.60;;;1.80;;
63653;SDS011;49809;47.418;19.080;2023-07-13T16:33:28;2.67;;;1.80;;
63653;SDS011;49809;47.418;19.080;2023-07-13T16:40:57;2.87;;;1.87;;
63653;SDS011;49809;47.418;19.080;2023-07-13T16:52:37;2.00;;;1.52;;
63653;SDS011;49809;47.418;19.080;2023-07-13T16:55:41;2.15;;;1.70;;
63653;SDS011;49809;47.418;19.080;2023-07-13T16:58:52;2.53;;;1.70;;
63653;SDS011;49809;47.418;19.080;2023-07-13T17:05:30;2.92;;;1.60;;
63653;SDS011;49809;47.418;19.080;2023-07-13T17:08:46;3.37;;;1.60;;
63653;SDS011;49809;47.418;19.080;2023-07-13T17:12:07;1.33;;;1.20;;
63653;SDS011;49809;47.418;19.080;2023-07-13T17:15:15;2.78;;;1.62;;
63653;SDS011;49809;47.418;19.080;2023-07-13T17:18:21;1.95;;;1.70;;
63653;SDS011;49809;47.418;19.080;2023-07-13T17:21:30;1.90;;;1.48;;
63653;SDS011;49809;47.418;19.080;2023-07-13T17:24:36;2.08;;;1.40;;
63653;SDS011;49809;47.418;19.080;2023-07-13T17:27:42;2.47;;;1.60;;
63653;SDS011;49809;47.418;19.080;2023-07-13T17:30:49;2.05;;;1.85;;
63653;SDS011;49809;47.418;19.080;2023-07-13T17:33:54;2.72;;;1.50;;
63653;SDS011;49809;47.418;19.080;2023-07-13T17:37:02;3.33;;;2.33;;
63653;SDS011;49809;47.418;19.080;2023-07-13T17:40:12;2.97;;;1.87;;
63653;SDS011;49809;47.418;19.080;2023-07-13T17:43:28;2.70;;;1.80;;
63653;SDS011;49809;47.418;19.080;2023-07-13T17:46:32;3.17;;;1.55;;
63653;SDS011;49809;47.418;19.080;2023-07-13T17:49:37;2.35;;;1.75;;
63653;SDS011;49809;47.418;19.080;2023-07-13T17:52:44;5.85;;;1.90;;
63653;SDS011;49809;47.418;19.080;2023-07-13T17:55:52;3.17;;;2.00;;
63653;SDS011;49809;47.418;19.080;2023-07-13T17:59:00;2.60;;;1.90;;
63653;SDS011;49809;47.418;19.080;2023-07-13T18:02:08;2.87;;;1.90;;
63653;SDS011;49809;47.418;19.080;2023-07-13T18:05:20;2.65;;;1.60;;
63653;SDS011;49809;47.418;19.080;2023-07-13T18:08:27;2.72;;;1.73;;
63653;SDS011;49809;47.418;19.080;2023-07-13T18:11:34;3.90;;;1.80;;
63653;SDS011;49809;47.418;19.080;2023-07-13T18:14:36;2.28;;;1.90;;
63653;SDS011;49809;47.418;19.080;2023-07-13T18:17:45;2.97;;;1.80;;
63653;SDS011;49809;47.418;19.080;2023-07-13T18:20:50;2.75;;;1.80;;
63653;SDS011;49809;47.418;19.080;2023-07-13T18:23:54;2.80;;;1.80;;
63653;SDS011;49809;47.418;19.080;2023-07-13T18:26:57;3.25;;;1.77;;
63653;SDS011;49809;47.418;19.080;2023-07-13T18:30:11;2.62;;;1.70;;
63653;SDS011;49809;47.418;19.080;2023-07-13T18:33:22;2.80;;;1.75;;
63653;SDS011;49809;47.418;19.080;2023-07-13T18:36:32;4.30;;;1.62;;
63653;SDS011;49809;47.418;19.080;2023-07-13T18:39:35;2.05;;;1.77;;
63653;SDS011;49809;47.418;19.080;2023-07-13T18:43:02;2.83;;;2.10;;
63653;SDS011;49809;47.418;19.080;2023-07-13T18:46:10;4.57;;;1.90;;
63653;SDS011;49809;47.418;19.080;2023-07-13T18:49:44;2.55;;;1.90;;
63653;SDS011;49809;47.418;19.080;2023-07-13T18:52:49;2.83;;;1.80;;
63653;SDS011;49809;47.418;19.080;2023-07-13T18:55:54;2.37;;;1.70;;
63653;SDS011;49809;47.418;19.080;2023-07-13T18:59:00;2.30;;;2.00;;
63653;SDS011;49809;47.418;19.080;2023-07-13T19:02:08;2.25;;;1.75;;
63653;SDS011;49809;47.418;19.080;2023-07-13T19:05:17;3.12;;;1.60;;
63653;SDS011;49809;47.418;19.080;2023-07-13T19:08:28;2.45;;;1.67;;
63653;SDS011;49809;47.418;19.080;2023-07-13T19:11:31;3.03;;;1.70;;
63653;SDS011;49809;47.418;19.080;2023-07-13T19:14:36;3.35;;;1.70;;
63653;SDS011;49809;47.418;19.080;2023-07-13T19:17:43;2.78;;;1.80;;
63653;SDS011;49809;47.418;19.080;2023-07-13T19:20:46;2.20;;;1.62;;
63653;SDS011;49809;47.418;19.080;2023-07-13T19:24:00;2.95;;;1.58;;
63653;SDS011;49809;47.418;19.080;2023-07-13T19:27:09;2.90;;;1.92;;
63653;SDS011;49809;47.418;19.080;2023-07-13T19:30:13;2.08;;;1.50;;
63653;SDS011;49809;47.418;19.080;2023-07-13T19:33:18;4.57;;;2.10;;
63653;SDS011;49809;47.418;19.080;2023-07-13T19:36:24;3.08;;;2.25;;
63653;SDS011;49809;47.418;19.080;2023-07-13T19:39:36;3.25;;;1.65;;
63653;SDS011;49809;47.418;19.080;2023-07-13T19:42:42;1.65;;;1.55;;
63653;SDS011;49809;47.418;19.080;2023-07-13T19:45:47;2.90;;;1.52;;
63653;SDS011;49809;47.418;19.080;2023-07-13T19:48:50;2.62;;;1.80;;
63653;SDS011;49809;47.418;19.080;2023-07-13T19:52:04;4.28;;;1.70;;
63653;SDS011;49809;47.418;19.080;2023-07-13T19:55:13;1.80;;;1.60;;
63653;SDS011;49809;47.418;19.080;2023-07-13T19:58:18;4.22;;;2.30;;
63653;SDS011;49809;47.418;19.080;2023-07-13T20:01:22;2.60;;;1.70;;
63653;SDS011;49809;47.418;19.080;2023-07-13T20:04:29;2.70;;;1.80;;
63653;SDS011;49809;47.418;19.080;2023-07-13T20:10:41;2.95;;;1.67;;
63653;SDS011;49809;47.418;19.080;2023-07-13T20:13:46;2.97;;;1.70;;
63653;SDS011;49809;47.418;19.080;2023-07-13T20:16:59;2.10;;;1.80;;
63653;SDS011;49809;47.418;19.080;2023-07-13T20:20:15;2.08;;;1.80;;
63653;SDS011;49809;47.418;19.080;2023-07-13T20:23:19;2.33;;;1.90;;
63653;SDS011;49809;47.418;19.080;2023-07-13T20:26:31;2.83;;;2.00;;
63653;SDS011;49809;47.418;19.080;2023-07-13T20:29:34;2.80;;;1.95;;
63653;SDS011;49809;47.418;19.080;2023-07-13T20:32:37;2.90;;;1.80;;
63653;SDS011;49809;47.418;19.080;2023-07-13T20:35:45;2.10;;;1.70;;
63653;SDS011;49809;47.418;19.080;2023-07-13T20:38:48;3.45;;;1.85;;
63653;SDS011;49809;47.418;19.080;2023-07-13T20:41:54;3.15;;;1.60;;
63653;SDS011;49809;47.418;19.080;2023-07-13T20:45:13;2.12;;;1.77;;
63653;SDS011;49809;47.418;19.080;2023-07-13T20:48:36;2.33;;;1.52;;
63653;SDS011;49809;47.418;19.080;2023-07-13T20:51:42;2.05;;;1.50;;
63653;SDS011;49809;47.418;19.080;2023-07-13T20:55:04;3.97;;;2.10;;
63653;SDS011;49809;47.418;19.080;2023-07-13T20:58:29;3.72;;;2.00;;
63653;SDS011;49809;47.418;19.080;2023-07-13T21:01:57;2.15;;;1.90;;
63653;SDS011;49809;47.418;19.080;2023-07-13T21:05:24;4.20;;;2.30;;
63653;SDS011;49809;47.418;19.080;2023-07-13T21:09:13;4.00;;;1.95;;
63653;SDS011;49809;47.418;19.080;2023-07-13T21:12:56;2.95;;;1.87;;
63653;SDS011;49809;47.418;19.080;2023-07-13T21:16:42;2.12;;;1.92;;
63653;SDS011;49809;47.418;19.080;2023-07-13T21:20:02;2.80;;;1.62;;
63653;SDS011;49809;47.418;19.080;2023-07-13T21:23:31;4.53;;;1.98;;
63653;SDS011;49809;47.418;19.080;2023-07-13T21:26:46;3.42;;;1.87;;
63653;SDS011;49809;47.418;19.080;2023-07-13T21:30:26;6.43;;;1.80;;
63653;SDS011;49809;47.418;19.080;2023-07-13T21:33:43;3.55;;;2.10;;
63653;SDS011;49809;47.418;19.080;2023-07-13T21:36:51;4.55;;;2.10;;
63653;SDS011;49809;47.418;19.080;2023-07-13T21:40:01;3.67;;;1.95;;
63653;SDS011;49809;47.418;19.080;2023-07-13T21:43:12;3.30;;;1.92;;
63653;SDS011;49809;47.418;19.080;2023-07-13T21:46:39;2.70;;;1.90;;
63653;SDS011;49809;47.418;19.080;2023-07-13T21:49:48;2.20;;;1.90;;
63653;SDS011;49809;47.418;19.080;2023-07-13T21:52:51;2.40;;;1.80;;
63653;SDS011;49809;47.418;19.080;2023-07-13T21:55:59;2.67;;;2.30;;
63653;SDS011;49809;47.418;19.080;2023-07-13T21:59:16;2.20;;;1.90;;
63653;SDS011;49809;47.418;19.080;2023-07-13T22:02:23;3.55;;;2.10;;
63653;SDS011;49809;47.418;19.080;2023-07-13T22:05:27;3.10;;;2.10;;
63653;SDS011;49809;47.418;19.080;2023-07-13T22:08:34;2.40;;;1.55;;
63653;SDS011;49809;47.418;19.080;2023-07-13T22:11:42;3.90;;;1.92;;
63653;SDS011;49809;47.418;19.080;2023-07-13T22:15:15;3.97;;;2.08;;
63653;SDS011;49809;47.418;19.080;2023-07-13T22:18:20;2.03;;;1.80;;
63653;SDS011;49809;47.418;19.080;2023-07-13T22:21:44;2.33;;;2.00;;
63653;SDS011;49809;47.418;19.080;2023-07-13T22:24:50;2.95;;;2.05;;
63653;SDS011;49809;47.418;19.080;2023-07-13T22:27:53;3.28;;;1.70;;
63653;SDS011;49809;47.418;19.080;2023-07-13T22:30:57;2.42;;;1.67;;
63653;SDS011;49809;47.418;19.080;2023-07-13T22:34:04;2.20;;;1.80;;
63653;SDS011;49809;47.418;19.080;2023-07-13T22:37:15;2.28;;;1.80;;
63653;SDS011;49809;47.418;19.080;2023-07-13T22:40:19;2.65;;;1.90;;
63653;SDS011;49809;47.418;19.080;2023-07-13T22:43:24;2.50;;;1.92;;
63653;SDS011;49809;47.418;19.080;2023-07-13T22:46:30;2.58;;;1.90;;
63653;SDS011;49809;47.418;19.080;2023-07-13T22:49:34;3.80;;;2.10;;
63653;SDS011;49809;47.418;19.080;2023-07-13T22:52:42;2.30;;;1.95;;
63653;SDS011;49809;47.418;19.080;2023-07-13T22:55:45;2.00;;;1.80;;
63653;SDS011;49809;47.418;19.080;2023-07-13T22:58:48;2.45;;;2.00;;
63653;SDS011;49809;47.418;19.080;2023-07-13T23:02:16;2.62;;;1.80;;
63653;SDS011;49809;47.418;19.080;2023-07-13T23:05:22;3.20;;;2.33;;
63653;SDS011;49809;47.418;19.080;2023-07-13T23:08:28;2.83;;;2.00;;
63653;SDS011;49809;47.418;19.080;2023-07-13T23:11:31;4.07;;;2.65;;
63653;SDS011;49809;47.418;19.080;2023-07-13T23:14:35;3.53;;;2.10;;
63653;SDS011;49809;47.418;19.080;2023-07-13T23:17:39;2.70;;;1.80;;
63653;SDS011;49809;47.418;19.080;2023-07-13T23:21:03;2.37;;;2.00;;
63653;SDS011;49809;47.418;19.080;2023-07-13T23:24:11;3.53;;;2.00;;
63653;SDS011;49809;47.418;19.080;2023-07-13T23:27:16;2.37;;;2.03;;
63653;SDS011;49809;47.418;19.080;2023-07-13T23:30:24;2.80;;;1.98;;
63653;SDS011;49809;47.418;19.080;2023-07-13T23:33:29;4.03;;;1.80;;
63653;SDS011;49809;47.418;19.080;2023-07-13T23:36:34;2.35;;;1.80;;
63653;SDS011;49809;47.418;19.080;2023-07-13T23:39:39;3.45;;;2.12;;
63653;SDS011;49809;47.418;19.080;2023-07-13T23:42:48;2.25;;;2.05;;
63653;SDS011;49809;47.418;19.080;2023-07-13T23:45:54;2.83;;;2.08;;
63653;SDS011;49809;47.418;19.080;2023-07-13T23:52:30;2.50;;;2.08;;
63653;SDS011;49809;47.418;19.080;2023-07-13T23:55:53;4.00;;;2.00;;
63653;SDS011;49809;47.418;19.080;2023-07-13T23:58:58;2.17;;;1.92;;
